PWSweather.com
Personal Weather Stations
Station Observations
KCOBLACK1
Chalet Park, Black Hawk, CO 80422

Chalet ParkBlack Hawk, CO 80422

Lat: 39.8294, Lon: -105.48

Elevation: 9370

Station Type: Vantage Pro2

http://www.oscaranddeb.com/weather

High Low Average
Temperature 26.0°F-3.3°F 9.8°F-12.3°F 15.6°F-9.1°F
Dew Point 17.2°F-8.2°F 2.9°F-16.2°F 10.0°F-12.2°F
Winds 5.9 mph WNW9.5 mph WNW Calm Calm 1.6 mph 2.6 mph
Wind Gusts 15.0 mph24.1 mph -- 4.4 mph7.1 mph
Humidity 90% 64% 79%
Pressure 30.26 in1024.70 in 29.99 in1015.60 in -
Precipitation 0.00 in0.00 in - -
Hour Temp Dew Point Humidity Winds Wind Gusts Pressure Precip Precip Rate Daily Precip Total
12:00 AM 11.1°F-11.6°C 4.2°F-15.4°C 73% 0.8 mph S1.3 kmh S 3.0 mph4.8 kmh 30.26 in1024.7 mb 0.00 in0.0 mm 0.00 in0.0 mm 0.01 in0.3 mm
12:05 AM 11.2°F-11.6°C 4.0°F-15.6°C 72% 0.5 mph S0.8 kmh S 3.0 mph4.8 kmh 30.25 in1024.4 mb 0.00 in0.0 mm 0.00 in0.0 mm 0.00 in0.0 mm
12:10 AM 11.4°F-11.4°C 3.9°F-15.6°C 71% 1.7 mph S2.7 kmh S 3.0 mph4.8 kmh 30.25 in1024.4 mb 0.00 in0.0 mm 0.00 in0.0 mm 0.00 in0.0 mm
12:15 AM 11.6°F-11.3°C 3.7°F-15.7°C 70% 1.7 mph S2.7 kmh S 3.0 mph4.8 kmh 30.25 in1024.4 mb 0.00 in0.0 mm 0.00 in0.0 mm 0.00 in0.0 mm
12:20 AM 11.9°F-11.2°C 3.7°F-15.7°C 69% 1.7 mph S2.7 kmh S 3.0 mph4.8 kmh 30.25 in1024.4 mb 0.00 in0.0 mm 0.00 in0.0 mm 0.00 in0.0 mm
12:25 AM 12.2°F-11.0°C 3.7°F-15.7°C 68% 1.7 mph S2.7 kmh S 3.0 mph4.8 kmh 30.24 in1024.0 mb 0.00 in0.0 mm 0.00 in0.0 mm 0.00 in0.0 mm
12:30 AM 12.5°F-10.8°C 3.7°F-15.7°C 67% 2.1 mph SSW3.4 kmh SSW 3.0 mph4.8 kmh 30.24 in1024.0 mb 0.00 in0.0 mm 0.00 in0.0 mm 0.00 in0.0 mm
12:35 AM 12.7°F-10.7°C 3.5°F-15.8°C 66% 1.8 mph SSW2.9 kmh SSW 3.0 mph4.8 kmh 30.24 in1024.0 mb 0.00 in0.0 mm 0.00 in0.0 mm 0.00 in0.0 mm
12:40 AM 12.9°F-10.6°C 3.4°F-15.9°C 65% 1.5 mph SW2.4 kmh SW 4.0 mph6.4 kmh 30.24 in1024.0 mb 0.00 in0.0 mm 0.00 in0.0 mm 0.00 in0.0 mm
12:45 AM 13.1°F-10.5°C 3.6°F-15.8°C 65% 1.8 mph SSW2.9 kmh SSW 4.0 mph6.4 kmh 30.24 in1024.0 mb 0.00 in0.0 mm 0.00 in0.0 mm 0.00 in0.0 mm
12:50 AM 13.3°F-10.4°C 3.4°F-15.9°C 64% 1.3 mph SSW2.1 kmh SSW 3.0 mph4.8 kmh 30.24 in1024.0 mb 0.00 in0.0 mm 0.00 in0.0 mm 0.00 in0.0 mm
12:55 AM 13.4°F-10.3°C 3.5°F-15.8°C 64% 1.1 mph SSW1.8 kmh SSW 2.0 mph3.2 kmh 30.24 in1024.0 mb 0.00 in0.0 mm 0.00 in0.0 mm 0.00 in0.0 mm
01:00 AM 13.5°F-10.3°C 3.6°F-15.8°C 64% 1.7 mph SSE2.7 kmh SSE 3.0 mph4.8 kmh 30.24 in1024.0 mb 0.00 in0.0 mm 0.00 in0.0 mm 0.00 in0.0 mm
01:05 AM 13.4°F-10.3°C 3.9°F-15.6°C 65% 2.0 mph SE3.2 kmh SE 3.0 mph4.8 kmh 30.24 in1024.0 mb 0.00 in0.0 mm 0.00 in0.0 mm 0.00 in0.0 mm
01:10 AM 13.0°F-10.6°C 3.8°F-15.7°C 66% 1.3 mph ESE2.1 kmh ESE 3.0 mph4.8 kmh 30.23 in1023.7 mb 0.00 in0.0 mm 0.00 in0.0 mm 0.00 in0.0 mm
01:15 AM 12.8°F-10.7°C 3.9°F-15.6°C 67% 1.5 mph ESE2.4 kmh ESE 2.0 mph3.2 kmh 30.23 in1023.7 mb 0.00 in0.0 mm 0.00 in0.0 mm 0.00 in0.0 mm
01:20 AM 12.8°F-10.7°C 3.6°F-15.8°C 66% 0.7 mph E1.1 kmh E 3.0 mph4.8 kmh 30.23 in1023.7 mb 0.00 in0.0 mm 0.00 in0.0 mm 0.00 in0.0 mm
01:25 AM 13.0°F-10.6°C 3.8°F-15.7°C 66% 1.6 mph E2.6 kmh E 3.0 mph4.8 kmh 30.23 in1023.7 mb 0.00 in0.0 mm 0.00 in0.0 mm 0.00 in0.0 mm
01:30 AM 13.3°F-10.4°C 4.1°F-15.5°C 66% 1.5 mph E2.4 kmh E 3.0 mph4.8 kmh 30.23 in1023.7 mb 0.00 in0.0 mm 0.00 in0.0 mm 0.00 in0.0 mm
01:35 AM 13.6°F-10.2°C 4.1°F-15.5°C 65% 1.7 mph E2.7 kmh E 3.0 mph4.8 kmh 30.23 in1023.7 mb 0.00 in0.0 mm 0.00 in0.0 mm 0.00 in0.0 mm
01:40 AM 13.6°F-10.2°C 4.4°F-15.3°C 66% 1.3 mph ESE2.1 kmh ESE 3.0 mph4.8 kmh 30.23 in1023.7 mb 0.00 in0.0 mm 0.00 in0.0 mm 0.00 in0.0 mm
01:45 AM 13.5°F-10.3°C 4.3°F-15.4°C 66% 1.5 mph ESE2.4 kmh ESE 3.0 mph4.8 kmh 30.22 in1023.4 mb 0.00 in0.0 mm 0.00 in0.0 mm 0.00 in0.0 mm
01:50 AM 13.4°F-10.3°C 4.5°F-15.3°C 67% 2.1 mph ESE3.4 kmh ESE 4.0 mph6.4 kmh 30.22 in1023.4 mb 0.00 in0.0 mm 0.00 in0.0 mm 0.00 in0.0 mm
01:55 AM 13.1°F-10.5°C 4.2°F-15.4°C 67% 2.0 mph E3.2 kmh E 4.0 mph6.4 kmh 30.22 in1023.4 mb 0.00 in0.0 mm 0.00 in0.0 mm 0.00 in0.0 mm
02:00 AM 12.7°F-10.7°C 3.8°F-15.7°C 67% 2.7 mph E4.3 kmh E 5.0 mph8.0 kmh 30.22 in1023.4 mb 0.00 in0.0 mm 0.00 in0.0 mm 0.00 in0.0 mm
02:05 AM 12.2°F-11.0°C 3.4°F-15.9°C 67% 3.6 mph E5.8 kmh E 5.0 mph8.0 kmh 30.21 in1023.0 mb 0.00 in0.0 mm 0.00 in0.0 mm 0.00 in0.0 mm
02:10 AM 11.8°F-11.2°C 3.0°F-16.1°C 67% 4.0 mph E6.4 kmh E 6.0 mph9.7 kmh 30.21 in1023.0 mb 0.00 in0.0 mm 0.00 in0.0 mm 0.00 in0.0 mm
02:15 AM 11.4°F-11.4°C 2.9°F-16.2°C 68% 3.7 mph E6.0 kmh E 6.0 mph9.7 kmh 30.21 in1023.0 mb 0.00 in0.0 mm 0.00 in0.0 mm 0.00 in0.0 mm
02:20 AM 11.1°F-11.6°C 2.9°F-16.2°C 69% 3.9 mph ENE6.3 kmh ENE 5.0 mph8.0 kmh 30.20 in1022.7 mb 0.00 in0.0 mm 0.00 in0.0 mm 0.00 in0.0 mm
02:25 AM 10.9°F-11.7°C 3.1°F-16.1°C 70% 3.3 mph NE5.3 kmh NE 5.0 mph8.0 kmh 30.20 in1022.7 mb 0.00 in0.0 mm 0.00 in0.0 mm 0.00 in0.0 mm
02:30 AM 10.7°F-11.8°C 2.9°F-16.2°C 70% 3.0 mph NE4.8 kmh NE 5.0 mph8.0 kmh 30.20 in1022.7 mb 0.00 in0.0 mm 0.00 in0.0 mm 0.00 in0.0 mm
02:35 AM 10.5°F-11.9°C 3.0°F-16.1°C 71% 3.3 mph NE5.3 kmh NE 5.0 mph8.0 kmh 30.19 in1022.4 mb 0.00 in0.0 mm 0.00 in0.0 mm 0.00 in0.0 mm
02:40 AM 10.5°F-11.9°C 3.0°F-16.1°C 71% 3.1 mph NE5.0 kmh NE 5.0 mph8.0 kmh 30.19 in1022.4 mb 0.00 in0.0 mm 0.00 in0.0 mm 0.00 in0.0 mm
02:45 AM 10.5°F-11.9°C 3.3°F-15.9°C 72% 3.1 mph NE5.0 kmh NE 5.0 mph8.0 kmh 30.18 in1022.0 mb 0.00 in0.0 mm 0.00 in0.0 mm 0.00 in0.0 mm
02:50 AM 10.5°F-11.9°C 3.3°F-15.9°C 72% 2.9 mph NE4.7 kmh NE 5.0 mph8.0 kmh 30.18 in1022.0 mb 0.00 in0.0 mm 0.00 in0.0 mm 0.00 in0.0 mm
02:55 AM 10.5°F-11.9°C 3.3°F-15.9°C 72% 2.6 mph NE4.2 kmh NE 5.0 mph8.0 kmh 30.17 in1021.7 mb 0.00 in0.0 mm 0.00 in0.0 mm 0.00 in0.0 mm
03:00 AM 10.6°F-11.9°C 3.4°F-15.9°C 72% 2.3 mph NE3.7 kmh NE 4.0 mph6.4 kmh 30.17 in1021.7 mb 0.00 in0.0 mm 0.00 in0.0 mm 0.00 in0.0 mm
03:05 AM 10.7°F-11.8°C 3.5°F-15.8°C 72% 3.1 mph ENE5.0 kmh ENE 5.0 mph8.0 kmh 30.17 in1021.7 mb 0.00 in0.0 mm 0.00 in0.0 mm 0.00 in0.0 mm
03:10 AM 10.8°F-11.8°C 3.6°F-15.8°C 72% 2.7 mph E4.3 kmh E 5.0 mph8.0 kmh 30.16 in1021.3 mb 0.00 in0.0 mm 0.00 in0.0 mm 0.00 in0.0 mm
03:15 AM 10.9°F-11.7°C 3.4°F-15.9°C 71% 2.1 mph E3.4 kmh E 5.0 mph8.0 kmh 30.16 in1021.3 mb 0.00 in0.0 mm 0.00 in0.0 mm 0.00 in0.0 mm
03:20 AM 10.9°F-11.7°C 3.4°F-15.9°C 71% 2.0 mph ENE3.2 kmh ENE 4.0 mph6.4 kmh 30.16 in1021.3 mb 0.00 in0.0 mm 0.00 in0.0 mm 0.00 in0.0 mm
03:25 AM 11.0°F-11.7°C 3.5°F-15.8°C 71% 1.8 mph ENE2.9 kmh ENE 4.0 mph6.4 kmh 30.16 in1021.3 mb 0.00 in0.0 mm 0.00 in0.0 mm 0.00 in0.0 mm
03:30 AM 11.1°F-11.6°C 3.3°F-15.9°C 70% 1.6 mph ENE2.6 kmh ENE 4.0 mph6.4 kmh 30.16 in1021.3 mb 0.00 in0.0 mm 0.00 in0.0 mm 0.00 in0.0 mm
03:35 AM 11.3°F-11.5°C 3.8°F-15.7°C 71% 1.4 mph ENE2.3 kmh ENE 4.0 mph6.4 kmh 30.16 in1021.3 mb 0.00 in0.0 mm 0.00 in0.0 mm 0.00 in0.0 mm
03:40 AM 11.7°F-11.3°C 4.1°F-15.5°C 71% 1.6 mph E2.6 kmh E 4.0 mph6.4 kmh 30.16 in1021.3 mb 0.00 in0.0 mm 0.00 in0.0 mm 0.00 in0.0 mm
03:45 AM 12.1°F-11.1°C 4.5°F-15.3°C 71% 0.1 mph E0.2 kmh E 3.0 mph4.8 kmh 30.16 in1021.3 mb 0.00 in0.0 mm 0.00 in0.0 mm 0.00 in0.0 mm
03:50 AM 12.3°F-10.9°C 4.1°F-15.5°C 69% Calm Calm 1.0 mph1.6 kmh 30.16 in1021.3 mb 0.00 in0.0 mm 0.00 in0.0 mm 0.00 in0.0 mm
03:55 AM 12.2°F-11.0°C 4.3°F-15.4°C 70% 1.2 mph E1.9 kmh E 4.0 mph6.4 kmh 30.15 in1021.0 mb 0.00 in0.0 mm 0.00 in0.0 mm 0.00 in0.0 mm
04:00 AM 12.2°F-11.0°C 4.6°F-15.2°C 71% 2.0 mph E3.2 kmh E 4.0 mph6.4 kmh 30.15 in1021.0 mb 0.00 in0.0 mm 0.00 in0.0 mm 0.00 in0.0 mm
04:05 AM 12.4°F-10.9°C 5.1°F-14.9°C 72% 2.0 mph SE3.2 kmh SE 4.0 mph6.4 kmh 30.15 in1021.0 mb 0.00 in0.0 mm 0.00 in0.0 mm 0.00 in0.0 mm
04:10 AM 12.6°F-10.8°C 5.0°F-15.0°C 71% 2.3 mph S3.7 kmh S 4.0 mph6.4 kmh 30.15 in1021.0 mb 0.00 in0.0 mm 0.00 in0.0 mm 0.00 in0.0 mm
04:15 AM 12.6°F-10.8°C 4.4°F-15.3°C 69% 1.5 mph SSW2.4 kmh SSW 4.0 mph6.4 kmh 30.14 in1020.7 mb 0.00 in0.0 mm 0.00 in0.0 mm 0.00 in0.0 mm
04:20 AM 12.5°F-10.8°C 4.3°F-15.4°C 69% 0.8 mph SSW1.3 kmh SSW 3.0 mph4.8 kmh 30.14 in1020.7 mb 0.00 in0.0 mm 0.00 in0.0 mm 0.00 in0.0 mm
04:25 AM 12.5°F-10.8°C 4.3°F-15.4°C 69% Calm Calm 2.0 mph3.2 kmh 30.14 in1020.7 mb 0.00 in0.0 mm 0.00 in0.0 mm 0.00 in0.0 mm
04:30 AM 12.4°F-10.9°C 4.2°F-15.4°C 69% Calm Calm -- 30.14 in1020.7 mb 0.00 in0.0 mm 0.00 in0.0 mm 0.00 in0.0 mm
04:35 AM 12.3°F-10.9°C 4.1°F-15.5°C 69% Calm Calm -- 30.14 in1020.7 mb 0.00 in0.0 mm 0.00 in0.0 mm 0.00 in0.0 mm
04:40 AM 12.2°F-11.0°C 3.7°F-15.7°C 68% Calm Calm -- 30.14 in1020.7 mb 0.00 in0.0 mm 0.00 in0.0 mm 0.00 in0.0 mm
04:45 AM 12.2°F-11.0°C 3.7°F-15.7°C 68% Calm Calm -- 30.14 in1020.7 mb 0.00 in0.0 mm 0.00 in0.0 mm 0.00 in0.0 mm
04:50 AM 12.2°F-11.0°C 4.0°F-15.6°C 69% Calm Calm -- 30.14 in1020.7 mb 0.00 in0.0 mm 0.00 in0.0 mm 0.00 in0.0 mm
04:55 AM 12.2°F-11.0°C 4.0°F-15.6°C 69% Calm Calm -- 30.14 in1020.7 mb 0.00 in0.0 mm 0.00 in0.0 mm 0.00 in0.0 mm
05:00 AM 12.2°F-11.0°C 4.3°F-15.4°C 70% 0.7 mph S1.1 kmh S 4.0 mph6.4 kmh 30.14 in1020.7 mb 0.00 in0.0 mm 0.00 in0.0 mm 0.00 in0.0 mm
05:05 AM 12.3°F-10.9°C 5.6°F-14.7°C 74% 0.5 mph SSE0.8 kmh SSE 4.0 mph6.4 kmh 30.13 in1020.3 mb 0.00 in0.0 mm 0.00 in0.0 mm 0.00 in0.0 mm
05:10 AM 12.5°F-10.8°C 5.2°F-14.9°C 72% Calm Calm 2.0 mph3.2 kmh 30.13 in1020.3 mb 0.00 in0.0 mm 0.00 in0.0 mm 0.00 in0.0 mm
05:15 AM 12.6°F-10.8°C 5.6°F-14.7°C 73% Calm Calm 1.0 mph1.6 kmh 30.12 in1020.0 mb 0.00 in0.0 mm 0.00 in0.0 mm 0.00 in0.0 mm
05:20 AM 12.7°F-10.7°C 5.4°F-14.8°C 72% Calm Calm -- 30.12 in1020.0 mb 0.00 in0.0 mm 0.00 in0.0 mm 0.00 in0.0 mm
05:25 AM 12.9°F-10.6°C 5.6°F-14.7°C 72% Calm Calm -- 30.12 in1020.0 mb 0.00 in0.0 mm 0.00 in0.0 mm 0.00 in0.0 mm
05:30 AM 13.1°F-10.5°C 5.8°F-14.6°C 72% 0.2 mph SSE0.3 kmh SSE 1.0 mph1.6 kmh 30.12 in1020.0 mb 0.00 in0.0 mm 0.00 in0.0 mm 0.00 in0.0 mm
05:35 AM 13.1°F-10.5°C 5.8°F-14.6°C 72% 0.3 mph SSE0.5 kmh SSE 2.0 mph3.2 kmh 30.11 in1019.6 mb 0.00 in0.0 mm 0.00 in0.0 mm 0.00 in0.0 mm
05:40 AM 13.1°F-10.5°C 6.4°F-14.2°C 74% 0.2 mph SE0.3 kmh SE 3.0 mph4.8 kmh 30.11 in1019.6 mb 0.00 in0.0 mm 0.00 in0.0 mm 0.00 in0.0 mm
05:45 AM 13.4°F-10.3°C 6.4°F-14.2°C 73% Calm Calm 3.0 mph4.8 kmh 30.11 in1019.6 mb 0.00 in0.0 mm 0.00 in0.0 mm 0.00 in0.0 mm
05:50 AM 13.6°F-10.2°C 6.6°F-14.1°C 73% 0.3 mph SE0.5 kmh SE 3.0 mph4.8 kmh 30.11 in1019.6 mb 0.00 in0.0 mm 0.00 in0.0 mm 0.00 in0.0 mm
05:55 AM 13.7°F-10.2°C 6.7°F-14.1°C 73% 1.6 mph SE2.6 kmh SE 3.0 mph4.8 kmh 30.11 in1019.6 mb 0.00 in0.0 mm 0.00 in0.0 mm 0.00 in0.0 mm
06:00 AM 13.9°F-10.1°C 7.2°F-13.8°C 74% 1.7 mph SE2.7 kmh SE 3.0 mph4.8 kmh 30.11 in1019.6 mb 0.00 in0.0 mm 0.00 in0.0 mm 0.00 in0.0 mm
06:05 AM 14.3°F-9.8°C 7.3°F-13.7°C 73% 2.3 mph S3.7 kmh S 3.0 mph4.8 kmh 30.12 in1020.0 mb 0.00 in0.0 mm 0.00 in0.0 mm 0.00 in0.0 mm
06:10 AM 14.5°F-9.7°C 7.5°F-13.6°C 73% 1.4 mph S2.3 kmh S 3.0 mph4.8 kmh 30.12 in1020.0 mb 0.00 in0.0 mm 0.00 in0.0 mm 0.00 in0.0 mm
06:15 AM 14.7°F-9.6°C 7.6°F-13.6°C 73% 0.2 mph S0.3 kmh S 3.0 mph4.8 kmh 30.12 in1020.0 mb 0.00 in0.0 mm 0.00 in0.0 mm 0.00 in0.0 mm
06:20 AM 14.7°F-9.6°C 7.9°F-13.4°C 74% 0.4 mph SSE0.6 kmh SSE 2.0 mph3.2 kmh 30.12 in1020.0 mb 0.00 in0.0 mm 0.00 in0.0 mm 0.00 in0.0 mm
06:25 AM 14.8°F-9.6°C 7.7°F-13.5°C 73% 0.3 mph SSE0.5 kmh SSE 2.0 mph3.2 kmh 30.12 in1020.0 mb 0.00 in0.0 mm 0.00 in0.0 mm 0.00 in0.0 mm
06:30 AM 14.9°F-9.5°C 7.5°F-13.6°C 72% Calm Calm 1.0 mph1.6 kmh 30.11 in1019.6 mb 0.00 in0.0 mm 0.00 in0.0 mm 0.00 in0.0 mm
06:35 AM 14.9°F-9.5°C 7.2°F-13.8°C 71% Calm Calm -- 30.11 in1019.6 mb 0.00 in0.0 mm 0.00 in0.0 mm 0.00 in0.0 mm
06:40 AM 14.9°F-9.5°C 7.5°F-13.6°C 72% Calm Calm -- 30.11 in1019.6 mb 0.00 in0.0 mm 0.00 in0.0 mm 0.00 in0.0 mm
06:45 AM 15.1°F-9.4°C 8.6°F-13.0°C 75% 1.1 mph NE1.8 kmh NE 5.0 mph8.0 kmh 30.11 in1019.6 mb 0.00 in0.0 mm 0.00 in0.0 mm 0.00 in0.0 mm
06:50 AM 15.3°F-9.3°C 8.8°F-12.9°C 75% 0.7 mph N1.1 kmh N 5.0 mph8.0 kmh 30.11 in1019.6 mb 0.00 in0.0 mm 0.00 in0.0 mm 0.00 in0.0 mm
06:55 AM 15.4°F-9.2°C 9.2°F-12.7°C 76% 0.5 mph N0.8 kmh N 2.0 mph3.2 kmh 30.11 in1019.6 mb 0.00 in0.0 mm 0.00 in0.0 mm 0.00 in0.0 mm
07:00 AM 15.6°F-9.1°C 9.4°F-12.6°C 76% 2.2 mph NNE3.5 kmh NNE 3.0 mph4.8 kmh 30.11 in1019.6 mb 0.00 in0.0 mm 0.00 in0.0 mm 0.00 in0.0 mm
07:05 AM 15.5°F-9.2°C 9.3°F-12.6°C 76% 2.1 mph NNE3.4 kmh NNE 3.0 mph4.8 kmh 30.11 in1019.6 mb 0.00 in0.0 mm 0.00 in0.0 mm 0.00 in0.0 mm
07:10 AM 15.5°F-9.2°C 9.3°F-12.6°C 76% 1.0 mph NNE1.6 kmh NNE 3.0 mph4.8 kmh 30.11 in1019.6 mb 0.00 in0.0 mm 0.00 in0.0 mm 0.00 in0.0 mm
07:15 AM 15.5°F-9.2°C 9.6°F-12.4°C 77% 0.8 mph NNE1.3 kmh NNE 2.0 mph3.2 kmh 30.11 in1019.6 mb 0.00 in0.0 mm 0.00 in0.0 mm 0.00 in0.0 mm
07:20 AM 15.6°F-9.1°C 10.0°F-12.2°C 78% 1.5 mph NE2.4 kmh NE 3.0 mph4.8 kmh 30.11 in1019.6 mb 0.00 in0.0 mm 0.00 in0.0 mm 0.00 in0.0 mm
07:25 AM 15.8°F-9.0°C 10.5°F-11.9°C 79% 1.2 mph NE1.9 kmh NE 3.0 mph4.8 kmh 30.11 in1019.6 mb 0.00 in0.0 mm 0.00 in0.0 mm 0.00 in0.0 mm
07:30 AM 16.0°F-8.9°C 10.7°F-11.8°C 79% 1.0 mph NE1.6 kmh NE 2.0 mph3.2 kmh 30.12 in1020.0 mb 0.00 in0.0 mm 0.00 in0.0 mm 0.00 in0.0 mm
07:35 AM 16.2°F-8.8°C 10.9°F-11.7°C 79% 1.0 mph NE1.6 kmh NE 3.0 mph4.8 kmh 30.11 in1019.6 mb 0.00 in0.0 mm 0.00 in0.0 mm 0.00 in0.0 mm
07:40 AM 16.1°F-8.8°C 10.2°F-12.1°C 77% 1.0 mph WSW1.6 kmh WSW 4.0 mph6.4 kmh 30.12 in1020.0 mb 0.00 in0.0 mm 0.00 in0.0 mm 0.00 in0.0 mm
07:45 AM 15.5°F-9.2°C 9.3°F-12.6°C 76% 1.6 mph W2.6 kmh W 4.0 mph6.4 kmh 30.12 in1020.0 mb 0.00 in0.0 mm 0.00 in0.0 mm 0.00 in0.0 mm
07:50 AM 14.8°F-9.6°C 8.9°F-12.8°C 77% 1.0 mph NW1.6 kmh NW 3.0 mph4.8 kmh 30.12 in1020.0 mb 0.00 in0.0 mm 0.00 in0.0 mm 0.00 in0.0 mm
07:55 AM 14.3°F-9.8°C 9.3°F-12.6°C 80% Calm Calm 3.0 mph4.8 kmh 30.13 in1020.3 mb 0.00 in0.0 mm 0.00 in0.0 mm 0.00 in0.0 mm
08:00 AM 14.0°F-10.0°C 9.5°F-12.5°C 82% Calm Calm 1.0 mph1.6 kmh 30.12 in1020.0 mb 0.00 in0.0 mm 0.00 in0.0 mm 0.00 in0.0 mm
08:05 AM 14.0°F-10.0°C 9.8°F-12.3°C 83% 0.3 mph NW0.5 kmh NW 2.0 mph3.2 kmh 30.12 in1020.0 mb 0.00 in0.0 mm 0.00 in0.0 mm 0.00 in0.0 mm
08:10 AM 14.3°F-9.8°C 10.9°F-11.7°C 86% 3.6 mph ENE5.8 kmh ENE 6.0 mph9.7 kmh 30.11 in1019.6 mb 0.00 in0.0 mm 0.00 in0.0 mm 0.00 in0.0 mm
08:15 AM 14.8°F-9.6°C 11.9°F-11.2°C 88% 2.9 mph E4.7 kmh E 6.0 mph9.7 kmh 30.11 in1019.6 mb 0.00 in0.0 mm 0.00 in0.0 mm 0.00 in0.0 mm
08:20 AM 15.3°F-9.3°C 12.7°F-10.7°C 89% 1.7 mph ENE2.7 kmh ENE 6.0 mph9.7 kmh 30.11 in1019.6 mb 0.00 in0.0 mm 0.00 in0.0 mm 0.00 in0.0 mm
08:25 AM 15.9°F-8.9°C 13.0°F-10.6°C 88% 3.2 mph NE5.1 kmh NE 7.0 mph11.3 kmh 30.11 in1019.6 mb 0.00 in0.0 mm 0.00 in0.0 mm 0.00 in0.0 mm
08:30 AM 16.1°F-8.8°C 12.9°F-10.6°C 87% 2.5 mph NNE4.0 kmh NNE 7.0 mph11.3 kmh 30.10 in1019.3 mb 0.00 in0.0 mm 0.00 in0.0 mm 0.00 in0.0 mm
08:35 AM 16.3°F-8.7°C 13.1°F-10.5°C 87% 1.4 mph NNE2.3 kmh NNE 6.0 mph9.7 kmh 30.10 in1019.3 mb 0.00 in0.0 mm 0.00 in0.0 mm 0.00 in0.0 mm
08:40 AM 16.7°F-8.5°C 13.5°F-10.3°C 87% 0.7 mph NNE1.1 kmh NNE 3.0 mph4.8 kmh 30.10 in1019.3 mb 0.00 in0.0 mm 0.00 in0.0 mm 0.00 in0.0 mm
08:45 AM 17.0°F-8.3°C 13.8°F-10.1°C 87% Calm Calm 3.0 mph4.8 kmh 30.10 in1019.3 mb 0.00 in0.0 mm 0.00 in0.0 mm 0.00 in0.0 mm
08:50 AM 17.5°F-8.1°C 14.0°F-10.0°C 86% 1.3 mph NNE2.1 kmh NNE 3.0 mph4.8 kmh 30.09 in1019.0 mb 0.00 in0.0 mm 0.00 in0.0 mm 0.00 in0.0 mm
08:55 AM 18.0°F-7.8°C 14.5°F-9.7°C 86% 1.1 mph NE1.8 kmh NE 5.0 mph8.0 kmh 30.09 in1019.0 mb 0.00 in0.0 mm 0.00 in0.0 mm 0.00 in0.0 mm
09:00 AM 18.4°F-7.6°C 14.7°F-9.6°C 85% 0.5 mph ENE0.8 kmh ENE 5.0 mph8.0 kmh 30.09 in1019.0 mb 0.00 in0.0 mm 0.00 in0.0 mm 0.00 in0.0 mm
09:05 AM 18.9°F-7.3°C 14.9°F-9.5°C 84% 0.7 mph ENE1.1 kmh ENE 4.0 mph6.4 kmh 30.09 in1019.0 mb 0.00 in0.0 mm 0.00 in0.0 mm 0.00 in0.0 mm
09:10 AM 19.4°F-7.0°C 15.1°F-9.4°C 83% 0.4 mph ENE0.6 kmh ENE 2.0 mph3.2 kmh 30.09 in1019.0 mb 0.00 in0.0 mm 0.00 in0.0 mm 0.00 in0.0 mm
09:15 AM 19.9°F-6.7°C 15.3°F-9.3°C 82% 0.2 mph ENE0.3 kmh ENE 2.0 mph3.2 kmh 30.08 in1018.6 mb 0.00 in0.0 mm 0.00 in0.0 mm 0.00 in0.0 mm
09:20 AM 20.7°F-6.3°C 15.5°F-9.2°C 80% 0.4 mph NE0.6 kmh NE 3.0 mph4.8 kmh 30.08 in1018.6 mb 0.00 in0.0 mm 0.00 in0.0 mm 0.00 in0.0 mm
09:25 AM 21.3°F-5.9°C 15.5°F-9.2°C 78% 0.3 mph NE0.5 kmh NE 3.0 mph4.8 kmh 30.08 in1018.6 mb 0.00 in0.0 mm 0.00 in0.0 mm 0.00 in0.0 mm
09:30 AM 21.8°F-5.7°C 15.7°F-9.1°C 77% 0.2 mph NE0.3 kmh NE 2.0 mph3.2 kmh 30.08 in1018.6 mb 0.00 in0.0 mm 0.00 in0.0 mm 0.00 in0.0 mm
09:35 AM 21.9°F-5.6°C 15.5°F-9.2°C 76% 0.8 mph NNW1.3 kmh NNW 4.0 mph6.4 kmh 30.07 in1018.3 mb 0.00 in0.0 mm 0.00 in0.0 mm 0.00 in0.0 mm
09:40 AM 22.1°F-5.5°C 15.4°F-9.2°C 75% 1.4 mph NNE2.3 kmh NNE 4.0 mph6.4 kmh 30.07 in1018.3 mb 0.00 in0.0 mm 0.00 in0.0 mm 0.00 in0.0 mm
09:45 AM 22.6°F-5.2°C 16.2°F-8.8°C 76% 1.5 mph NE2.4 kmh NE 6.0 mph9.7 kmh 30.07 in1018.3 mb 0.00 in0.0 mm 0.00 in0.0 mm 0.00 in0.0 mm
09:50 AM 23.2°F-4.9°C 16.2°F-8.8°C 74% 2.7 mph NNE4.3 kmh NNE 7.0 mph11.3 kmh 30.07 in1018.3 mb 0.00 in0.0 mm 0.00 in0.0 mm 0.00 in0.0 mm
09:55 AM 23.8°F-4.6°C 16.1°F-8.8°C 72% 2.0 mph NE3.2 kmh NE 7.0 mph11.3 kmh 30.06 in1017.9 mb 0.00 in0.0 mm 0.00 in0.0 mm 0.00 in0.0 mm
10:00 AM 24.1°F-4.4°C 15.4°F-9.2°C 69% 2.7 mph NE4.3 kmh NE 7.0 mph11.3 kmh 30.06 in1017.9 mb 0.00 in0.0 mm 0.00 in0.0 mm 0.00 in0.0 mm
10:05 AM 23.9°F-4.5°C 14.6°F-9.7°C 67% 2.6 mph NNE4.2 kmh NNE 7.0 mph11.3 kmh 30.06 in1017.9 mb 0.00 in0.0 mm 0.00 in0.0 mm 0.00 in0.0 mm
10:10 AM 24.0°F-4.4°C 14.3°F-9.8°C 66% 0.5 mph NE0.8 kmh NE 6.0 mph9.7 kmh 30.06 in1017.9 mb 0.00 in0.0 mm 0.00 in0.0 mm 0.00 in0.0 mm
10:15 AM 23.7°F-4.6°C 14.0°F-10.0°C 66% 1.2 mph N1.9 kmh N 4.0 mph6.4 kmh 30.05 in1017.6 mb 0.00 in0.0 mm 0.00 in0.0 mm 0.00 in0.0 mm
10:20 AM 23.4°F-4.8°C 14.8°F-9.6°C 69% 1.7 mph N2.7 kmh N 7.0 mph11.3 kmh 30.05 in1017.6 mb 0.00 in0.0 mm 0.00 in0.0 mm 0.00 in0.0 mm
10:25 AM 23.4°F-4.8°C 15.7°F-9.1°C 72% 0.1 mph W0.2 kmh W 7.0 mph11.3 kmh 30.05 in1017.6 mb 0.00 in0.0 mm 0.00 in0.0 mm 0.00 in0.0 mm
10:30 AM 23.6°F-4.7°C 14.3°F-9.8°C 67% 0.3 mph NW0.5 kmh NW 2.0 mph3.2 kmh 30.05 in1017.6 mb 0.00 in0.0 mm 0.00 in0.0 mm 0.00 in0.0 mm
10:35 AM 23.7°F-4.6°C 14.4°F-9.8°C 67% 0.3 mph NW0.5 kmh NW 2.0 mph3.2 kmh 30.05 in1017.6 mb 0.00 in0.0 mm 0.00 in0.0 mm 0.00 in0.0 mm
10:40 AM 24.0°F-4.4°C 15.7°F-9.1°C 70% 0.7 mph ENE1.1 kmh ENE 4.0 mph6.4 kmh 30.04 in1017.3 mb 0.00 in0.0 mm 0.00 in0.0 mm 0.00 in0.0 mm
10:45 AM 24.0°F-4.4°C 16.0°F-8.9°C 71% 1.9 mph NNE3.1 kmh NNE 6.0 mph9.7 kmh 30.04 in1017.3 mb 0.00 in0.0 mm 0.00 in0.0 mm 0.00 in0.0 mm
10:50 AM 23.2°F-4.9°C 16.2°F-8.8°C 74% 0.3 mph WNW0.5 kmh WNW 6.0 mph9.7 kmh 30.04 in1017.3 mb 0.00 in0.0 mm 0.00 in0.0 mm 0.00 in0.0 mm
10:55 AM 22.4°F-5.3°C 16.0°F-8.9°C 76% 1.1 mph WNW1.8 kmh WNW 3.0 mph4.8 kmh 30.04 in1017.3 mb 0.00 in0.0 mm 0.00 in0.0 mm 0.00 in0.0 mm
11:00 AM 21.6°F-5.8°C 15.5°F-9.2°C 77% 0.7 mph SW1.1 kmh SW 3.0 mph4.8 kmh 30.04 in1017.3 mb 0.00 in0.0 mm 0.00 in0.0 mm 0.00 in0.0 mm
11:05 AM 21.3°F-5.9°C 15.5°F-9.2°C 78% 0.3 mph WSW0.5 kmh WSW 3.0 mph4.8 kmh 30.04 in1017.3 mb 0.00 in0.0 mm 0.00 in0.0 mm 0.00 in0.0 mm
11:10 AM 21.0°F-6.1°C 15.5°F-9.2°C 79% 0.8 mph WSW1.3 kmh WSW 3.0 mph4.8 kmh 30.04 in1017.3 mb 0.00 in0.0 mm 0.00 in0.0 mm 0.00 in0.0 mm
11:15 AM 20.6°F-6.3°C 15.1°F-9.4°C 79% 1.1 mph W1.8 kmh W 3.0 mph4.8 kmh 30.04 in1017.3 mb 0.00 in0.0 mm 0.00 in0.0 mm 0.00 in0.0 mm
11:20 AM 20.2°F-6.6°C 15.3°F-9.3°C 81% 2.1 mph SSW3.4 kmh SSW 5.0 mph8.0 kmh 30.03 in1016.9 mb 0.00 in0.0 mm 0.00 in0.0 mm 0.00 in0.0 mm
11:25 AM 20.0°F-6.7°C 15.1°F-9.4°C 81% 1.0 mph SW1.6 kmh SW 5.0 mph8.0 kmh 30.03 in1016.9 mb 0.00 in0.0 mm 0.00 in0.0 mm 0.00 in0.0 mm
11:30 AM 20.1°F-6.6°C 15.5°F-9.2°C 82% 0.5 mph S0.8 kmh S 3.0 mph4.8 kmh 30.03 in1016.9 mb 0.00 in0.0 mm 0.00 in0.0 mm 0.00 in0.0 mm
11:35 AM 20.8°F-6.2°C 16.2°F-8.8°C 82% 0.4 mph SSE0.6 kmh SSE 3.0 mph4.8 kmh 30.02 in1016.6 mb 0.00 in0.0 mm 0.00 in0.0 mm 0.00 in0.0 mm
11:40 AM 21.7°F-5.7°C 16.5°F-8.6°C 80% 1.6 mph SE2.6 kmh SE 6.0 mph9.7 kmh 30.02 in1016.6 mb 0.00 in0.0 mm 0.00 in0.0 mm 0.00 in0.0 mm
11:45 AM 22.1°F-5.5°C 16.3°F-8.7°C 78% 1.4 mph SE2.3 kmh SE 6.0 mph9.7 kmh 30.02 in1016.6 mb 0.00 in0.0 mm 0.00 in0.0 mm 0.00 in0.0 mm
11:50 AM 22.3°F-5.4°C 16.2°F-8.8°C 77% 1.1 mph SE1.8 kmh SE 6.0 mph9.7 kmh 30.02 in1016.6 mb 0.00 in0.0 mm 0.00 in0.0 mm 0.00 in0.0 mm
11:55 AM 22.2°F-5.4°C 16.1°F-8.8°C 77% 0.4 mph SSE0.6 kmh SSE 4.0 mph6.4 kmh 30.02 in1016.6 mb 0.00 in0.0 mm 0.00 in0.0 mm 0.00 in0.0 mm
12:00 PM 23.3°F-4.8°C 17.2°F-8.2°C 77% 1.9 mph NE3.1 kmh NE 7.0 mph11.3 kmh 30.01 in1016.3 mb 0.00 in0.0 mm 0.00 in0.0 mm 0.00 in0.0 mm
12:05 PM 25.1°F-3.8°C 16.7°F-8.5°C 70% 5.6 mph NE9.0 kmh NE 11.0 mph17.7 kmh 30.01 in1016.3 mb 0.00 in0.0 mm 0.00 in0.0 mm 0.00 in0.0 mm
12:10 PM 26.0°F-3.3°C 16.6°F-8.6°C 67% 2.1 mph NE3.4 kmh NE 11.0 mph17.7 kmh 30.01 in1016.3 mb 0.00 in0.0 mm 0.00 in0.0 mm 0.00 in0.0 mm
12:15 PM 26.0°F-3.3°C 15.5°F-9.2°C 64% 2.0 mph NE3.2 kmh NE 8.0 mph12.9 kmh 30.00 in1015.9 mb 0.00 in0.0 mm 0.00 in0.0 mm 0.00 in0.0 mm
12:20 PM 25.7°F-3.5°C 15.6°F-9.1°C 65% 1.8 mph E2.9 kmh E 8.0 mph12.9 kmh 30.00 in1015.9 mb 0.00 in0.0 mm 0.00 in0.0 mm 0.00 in0.0 mm
12:25 PM 25.2°F-3.8°C 15.5°F-9.2°C 66% 2.1 mph E3.4 kmh E 6.0 mph9.7 kmh 30.00 in1015.9 mb 0.00 in0.0 mm 0.00 in0.0 mm 0.00 in0.0 mm
12:30 PM 24.9°F-3.9°C 15.9°F-8.9°C 68% 2.7 mph E4.3 kmh E 7.0 mph11.3 kmh 30.00 in1015.9 mb 0.00 in0.0 mm 0.00 in0.0 mm 0.00 in0.0 mm
12:35 PM 24.8°F-4.0°C 15.1°F-9.4°C 66% 2.4 mph E3.9 kmh E 7.0 mph11.3 kmh 29.99 in1015.6 mb 0.00 in0.0 mm 0.00 in0.0 mm 0.00 in0.0 mm
12:40 PM 24.5°F-4.2°C 14.8°F-9.6°C 66% 1.5 mph E2.4 kmh E 12.0 mph19.3 kmh 29.99 in1015.6 mb 0.00 in0.0 mm 0.00 in0.0 mm 0.00 in0.0 mm
12:45 PM 24.2°F-4.3°C 15.2°F-9.3°C 68% 5.1 mph NNE8.2 kmh NNE 12.0 mph19.3 kmh 30.00 in1015.9 mb 0.00 in0.0 mm 0.00 in0.0 mm 0.00 in0.0 mm
12:50 PM 23.7°F-4.6°C 15.7°F-9.1°C 71% 2.9 mph ENE4.7 kmh ENE 10.0 mph16.1 kmh 30.00 in1015.9 mb 0.00 in0.0 mm 0.00 in0.0 mm 0.00 in0.0 mm
12:55 PM 23.2°F-4.9°C 14.6°F-9.7°C 69% 1.2 mph ENE1.9 kmh ENE 10.0 mph16.1 kmh 30.00 in1015.9 mb 0.00 in0.0 mm 0.00 in0.0 mm 0.00 in0.0 mm
01:00 PM 22.9°F-5.1°C 15.2°F-9.3°C 72% 0.8 mph E1.3 kmh E 9.0 mph14.5 kmh 30.00 in1015.9 mb 0.00 in0.0 mm 0.00 in0.0 mm 0.00 in0.0 mm
01:05 PM 23.0°F-5.0°C 16.0°F-8.9°C 74% 1.7 mph E2.7 kmh E 5.0 mph8.0 kmh 30.00 in1015.9 mb 0.00 in0.0 mm 0.00 in0.0 mm 0.00 in0.0 mm
01:10 PM 22.9°F-5.1°C 15.6°F-9.1°C 73% 2.4 mph E3.9 kmh E 6.0 mph9.7 kmh 30.00 in1015.9 mb 0.00 in0.0 mm 0.00 in0.0 mm 0.00 in0.0 mm
01:15 PM 22.2°F-5.4°C 16.1°F-8.8°C 77% 2.4 mph S3.9 kmh S 6.0 mph9.7 kmh 30.00 in1015.9 mb 0.00 in0.0 mm 0.00 in0.0 mm 0.00 in0.0 mm
01:20 PM 21.1°F-6.1°C 16.2°F-8.8°C 81% 1.4 mph SW2.3 kmh SW 6.0 mph9.7 kmh 30.00 in1015.9 mb 0.00 in0.0 mm 0.00 in0.0 mm 0.00 in0.0 mm
01:25 PM 20.2°F-6.6°C 14.8°F-9.6°C 79% 2.8 mph SW4.5 kmh SW 8.0 mph12.9 kmh 30.00 in1015.9 mb 0.00 in0.0 mm 0.00 in0.0 mm 0.00 in0.0 mm
01:30 PM 19.8°F-6.8°C 12.6°F-10.8°C 73% 5.4 mph WNW8.7 kmh WNW 15.0 mph24.1 kmh 30.00 in1015.9 mb 0.00 in0.0 mm 0.00 in0.0 mm 0.00 in0.0 mm
01:35 PM 19.1°F-7.2°C 11.6°F-11.3°C 72% 5.9 mph WNW9.5 kmh WNW 15.0 mph24.1 kmh 30.00 in1015.9 mb 0.00 in0.0 mm 0.00 in0.0 mm 0.00 in0.0 mm
01:40 PM 19.0°F-7.2°C 12.4°F-10.9°C 75% 3.6 mph WNW5.8 kmh WNW 11.0 mph17.7 kmh 30.00 in1015.9 mb 0.00 in0.0 mm 0.00 in0.0 mm 0.00 in0.0 mm
01:45 PM 19.0°F-7.2°C 12.7°F-10.7°C 76% 3.4 mph W5.5 kmh W 9.0 mph14.5 kmh 30.00 in1015.9 mb 0.00 in0.0 mm 0.00 in0.0 mm 0.00 in0.0 mm
01:50 PM 19.0°F-7.2°C 12.7°F-10.7°C 76% 3.3 mph W5.3 kmh W 10.0 mph16.1 kmh 29.99 in1015.6 mb 0.00 in0.0 mm 0.00 in0.0 mm 0.00 in0.0 mm
01:55 PM 19.1°F-7.2°C 12.8°F-10.7°C 76% 4.5 mph W7.2 kmh W 11.0 mph17.7 kmh 29.99 in1015.6 mb 0.00 in0.0 mm 0.00 in0.0 mm 0.00 in0.0 mm
02:00 PM 19.1°F-7.2°C 13.1°F-10.5°C 77% 3.6 mph SW5.8 kmh SW 11.0 mph17.7 kmh 30.00 in1015.9 mb 0.00 in0.0 mm 0.00 in0.0 mm 0.00 in0.0 mm
02:05 PM 18.9°F-7.3°C 12.9°F-10.6°C 77% 3.8 mph W6.1 kmh W 10.0 mph16.1 kmh 30.00 in1015.9 mb 0.00 in0.0 mm 0.00 in0.0 mm 0.00 in0.0 mm
02:10 PM 18.8°F-7.3°C 13.4°F-10.3°C 79% 3.7 mph WNW6.0 kmh WNW 10.0 mph16.1 kmh 29.99 in1015.6 mb 0.00 in0.0 mm 0.00 in0.0 mm 0.00 in0.0 mm
02:15 PM 19.2°F-7.1°C 13.5°F-10.3°C 78% 0.6 mph SW1.0 kmh SW 9.0 mph14.5 kmh 30.00 in1015.9 mb 0.00 in0.0 mm 0.00 in0.0 mm 0.00 in0.0 mm
02:20 PM 19.7°F-6.8°C 14.0°F-10.0°C 78% 0.8 mph SSW1.3 kmh SSW 4.0 mph6.4 kmh 30.00 in1015.9 mb 0.00 in0.0 mm 0.00 in0.0 mm 0.00 in0.0 mm
02:25 PM 20.1°F-6.6°C 13.8°F-10.1°C 76% 2.9 mph SSW4.7 kmh SSW 7.0 mph11.3 kmh 30.00 in1015.9 mb 0.00 in0.0 mm 0.00 in0.0 mm 0.00 in0.0 mm
02:30 PM 20.7°F-6.3°C 14.4°F-9.8°C 76% 2.8 mph SSW4.5 kmh SSW 7.0 mph11.3 kmh 30.00 in1015.9 mb 0.00 in0.0 mm 0.00 in0.0 mm 0.00 in0.0 mm
02:35 PM 21.2°F-6.0°C 14.8°F-9.6°C 76% 1.7 mph WSW2.7 kmh WSW 7.0 mph11.3 kmh 30.00 in1015.9 mb 0.00 in0.0 mm 0.00 in0.0 mm 0.00 in0.0 mm
02:40 PM 21.7°F-5.7°C 15.6°F-9.1°C 77% 1.8 mph SW2.9 kmh SW 4.0 mph6.4 kmh 30.00 in1015.9 mb 0.00 in0.0 mm 0.00 in0.0 mm 0.00 in0.0 mm
02:45 PM 22.2°F-5.4°C 15.5°F-9.2°C 75% 2.2 mph SW3.5 kmh SW 4.0 mph6.4 kmh 30.00 in1015.9 mb 0.00 in0.0 mm 0.00 in0.0 mm 0.00 in0.0 mm
02:50 PM 22.4°F-5.3°C 15.7°F-9.1°C 75% 1.1 mph WNW1.8 kmh WNW 4.0 mph6.4 kmh 30.00 in1015.9 mb 0.00 in0.0 mm 0.00 in0.0 mm 0.00 in0.0 mm
02:55 PM 22.1°F-5.5°C 13.8°F-10.1°C 70% 0.7 mph NW1.1 kmh NW 3.0 mph4.8 kmh 30.00 in1015.9 mb 0.00 in0.0 mm 0.00 in0.0 mm 0.00 in0.0 mm
03:00 PM 22.1°F-5.5°C 12.8°F-10.7°C 67% 0.5 mph SW0.8 kmh SW 3.0 mph4.8 kmh 30.00 in1015.9 mb 0.00 in0.0 mm 0.00 in0.0 mm 0.00 in0.0 mm
03:05 PM 22.1°F-5.5°C 15.1°F-9.4°C 74% 1.1 mph S1.8 kmh S 4.0 mph6.4 kmh 30.00 in1015.9 mb 0.00 in0.0 mm 0.00 in0.0 mm 0.00 in0.0 mm
03:10 PM 22.2°F-5.4°C 16.1°F-8.8°C 77% 0.5 mph WSW0.8 kmh WSW 4.0 mph6.4 kmh 30.00 in1015.9 mb 0.00 in0.0 mm 0.00 in0.0 mm 0.00 in0.0 mm
03:15 PM 20.8°F-6.2°C 16.2°F-8.8°C 82% 2.2 mph WSW3.5 kmh WSW 5.0 mph8.0 kmh 30.01 in1016.3 mb 0.00 in0.0 mm 0.00 in0.0 mm 0.00 in0.0 mm
03:20 PM 20.4°F-6.4°C 16.4°F-8.7°C 84% 0.6 mph SW1.0 kmh SW 5.0 mph8.0 kmh 30.00 in1015.9 mb 0.00 in0.0 mm 0.00 in0.0 mm 0.00 in0.0 mm
03:25 PM 20.4°F-6.4°C 16.1°F-8.8°C 83% 0.9 mph SW1.4 kmh SW 3.0 mph4.8 kmh 30.01 in1016.3 mb 0.00 in0.0 mm 0.00 in0.0 mm 0.00 in0.0 mm
03:30 PM 20.8°F-6.2°C 16.7°F-8.5°C 84% 2.0 mph SW3.2 kmh SW 8.0 mph12.9 kmh 30.01 in1016.3 mb 0.00 in0.0 mm 0.00 in0.0 mm 0.00 in0.0 mm
03:35 PM 20.3°F-6.5°C 16.5°F-8.6°C 85% 2.0 mph SSW3.2 kmh SSW 8.0 mph12.9 kmh 30.02 in1016.6 mb 0.00 in0.0 mm 0.00 in0.0 mm 0.00 in0.0 mm
03:40 PM 20.0°F-6.7°C 16.2°F-8.8°C 85% 0.8 mph WSW1.3 kmh WSW 5.0 mph8.0 kmh 30.02 in1016.6 mb 0.00 in0.0 mm 0.00 in0.0 mm 0.00 in0.0 mm
03:45 PM 18.8°F-7.3°C 15.1°F-9.4°C 85% 3.1 mph WSW5.0 kmh WSW 6.0 mph9.7 kmh 30.02 in1016.6 mb 0.00 in0.0 mm 0.00 in0.0 mm 0.00 in0.0 mm
03:50 PM 18.5°F-7.5°C 15.6°F-9.1°C 88% 0.8 mph SW1.3 kmh SW 6.0 mph9.7 kmh 30.02 in1016.6 mb 0.00 in0.0 mm 0.00 in0.0 mm 0.00 in0.0 mm
03:55 PM 18.0°F-7.8°C 15.1°F-9.4°C 88% 2.2 mph SW3.5 kmh SW 3.0 mph4.8 kmh 30.02 in1016.6 mb 0.00 in0.0 mm 0.00 in0.0 mm 0.00 in0.0 mm
04:00 PM 18.0°F-7.8°C 15.3°F-9.3°C 89% 1.2 mph SSW1.9 kmh SSW 5.0 mph8.0 kmh 30.03 in1016.9 mb 0.00 in0.0 mm 0.00 in0.0 mm 0.00 in0.0 mm
04:05 PM 17.8°F-7.9°C 15.1°F-9.4°C 89% 0.5 mph WSW0.8 kmh WSW 5.0 mph8.0 kmh 30.03 in1016.9 mb 0.00 in0.0 mm 0.00 in0.0 mm 0.00 in0.0 mm
04:10 PM 17.4°F-8.1°C 14.7°F-9.6°C 89% 0.5 mph WSW0.8 kmh WSW 2.0 mph3.2 kmh 30.04 in1017.3 mb 0.00 in0.0 mm 0.00 in0.0 mm 0.00 in0.0 mm
04:15 PM 16.8°F-8.4°C 14.1°F-9.9°C 89% 0.9 mph SW1.4 kmh SW 3.0 mph4.8 kmh 30.04 in1017.3 mb 0.00 in0.0 mm 0.00 in0.0 mm 0.00 in0.0 mm
04:20 PM 16.6°F-8.6°C 14.2°F-9.9°C 90% 1.0 mph SSW1.6 kmh SSW 3.0 mph4.8 kmh 30.05 in1017.6 mb 0.00 in0.0 mm 0.00 in0.0 mm 0.00 in0.0 mm
04:25 PM 16.5°F-8.6°C 14.1°F-9.9°C 90% Calm Calm 3.0 mph4.8 kmh 30.05 in1017.6 mb 0.00 in0.0 mm 0.00 in0.0 mm 0.00 in0.0 mm
04:30 PM 16.5°F-8.6°C 14.1°F-9.9°C 90% 2.5 mph NW4.0 kmh NW 8.0 mph12.9 kmh 30.06 in1017.9 mb 0.00 in0.0 mm 0.00 in0.0 mm 0.00 in0.0 mm
04:35 PM 17.0°F-8.3°C 13.5°F-10.3°C 86% 2.9 mph WNW4.7 kmh WNW 8.0 mph12.9 kmh 30.05 in1017.6 mb 0.00 in0.0 mm 0.00 in0.0 mm 0.00 in0.0 mm
04:40 PM 17.3°F-8.2°C 14.1°F-9.9°C 87% 5.7 mph NE9.2 kmh NE 11.0 mph17.7 kmh 30.05 in1017.6 mb 0.00 in0.0 mm 0.00 in0.0 mm 0.00 in0.0 mm
04:45 PM 17.3°F-8.2°C 13.6°F-10.2°C 85% 4.5 mph NE7.2 kmh NE 12.0 mph19.3 kmh 30.05 in1017.6 mb 0.00 in0.0 mm 0.00 in0.0 mm 0.00 in0.0 mm
04:50 PM 17.1°F-8.3°C 12.8°F-10.7°C 83% 3.5 mph NE5.6 kmh NE 12.0 mph19.3 kmh 30.06 in1017.9 mb 0.00 in0.0 mm 0.00 in0.0 mm 0.00 in0.0 mm
04:55 PM 16.8°F-8.4°C 12.6°F-10.8°C 83% 4.6 mph NE7.4 kmh NE 9.0 mph14.5 kmh 30.06 in1017.9 mb 0.00 in0.0 mm 0.00 in0.0 mm 0.00 in0.0 mm
05:00 PM 16.4°F-8.7°C 11.9°F-11.2°C 82% 5.3 mph NE8.5 kmh NE 10.0 mph16.1 kmh 30.06 in1017.9 mb 0.00 in0.0 mm 0.00 in0.0 mm 0.00 in0.0 mm
05:05 PM 16.0°F-8.9°C 11.5°F-11.4°C 82% 4.2 mph NE6.8 kmh NE 11.0 mph17.7 kmh 30.06 in1017.9 mb 0.00 in0.0 mm 0.00 in0.0 mm 0.00 in0.0 mm
05:10 PM 15.7°F-9.1°C 11.2°F-11.6°C 82% 3.9 mph NE6.3 kmh NE 11.0 mph17.7 kmh 30.07 in1018.3 mb 0.00 in0.0 mm 0.00 in0.0 mm 0.00 in0.0 mm
05:15 PM 15.4°F-9.2°C 11.2°F-11.6°C 83% 3.5 mph NE5.6 kmh NE 9.0 mph14.5 kmh 30.07 in1018.3 mb 0.00 in0.0 mm 0.00 in0.0 mm 0.00 in0.0 mm
05:20 PM 15.1°F-9.4°C 10.9°F-11.7°C 83% 4.1 mph NE6.6 kmh NE 9.0 mph14.5 kmh 30.08 in1018.6 mb 0.00 in0.0 mm 0.00 in0.0 mm 0.00 in0.0 mm
05:25 PM 14.9°F-9.5°C 11.0°F-11.7°C 84% 3.5 mph ENE5.6 kmh ENE 9.0 mph14.5 kmh 30.08 in1018.6 mb 0.00 in0.0 mm 0.00 in0.0 mm 0.00 in0.0 mm
05:30 PM 14.8°F-9.6°C 10.9°F-11.7°C 84% 3.2 mph NE5.1 kmh NE 7.0 mph11.3 kmh 30.08 in1018.6 mb 0.00 in0.0 mm 0.00 in0.0 mm 0.00 in0.0 mm
05:35 PM 14.8°F-9.6°C 11.1°F-11.6°C 85% 3.9 mph NE6.3 kmh NE 8.0 mph12.9 kmh 30.08 in1018.6 mb 0.00 in0.0 mm 0.00 in0.0 mm 0.00 in0.0 mm
05:40 PM 14.7°F-9.6°C 10.8°F-11.8°C 84% 2.6 mph NE4.2 kmh NE 8.0 mph12.9 kmh 30.09 in1019.0 mb 0.00 in0.0 mm 0.00 in0.0 mm 0.00 in0.0 mm
05:45 PM 14.5°F-9.7°C 10.6°F-11.9°C 84% 3.9 mph NE6.3 kmh NE 8.0 mph12.9 kmh 30.09 in1019.0 mb 0.00 in0.0 mm 0.00 in0.0 mm 0.00 in0.0 mm
05:50 PM 14.3°F-9.8°C 10.6°F-11.9°C 85% 2.1 mph NE3.4 kmh NE 8.0 mph12.9 kmh 30.09 in1019.0 mb 0.00 in0.0 mm 0.00 in0.0 mm 0.00 in0.0 mm
05:55 PM 14.2°F-9.9°C 10.5°F-11.9°C 85% 2.8 mph ENE4.5 kmh ENE 5.0 mph8.0 kmh 30.10 in1019.3 mb 0.00 in0.0 mm 0.00 in0.0 mm 0.00 in0.0 mm
06:00 PM 14.1°F-9.9°C 10.7°F-11.8°C 86% 2.9 mph NE4.7 kmh NE 5.0 mph8.0 kmh 30.10 in1019.3 mb 0.00 in0.0 mm 0.00 in0.0 mm 0.00 in0.0 mm
06:05 PM 14.1°F-9.9°C 10.7°F-11.8°C 86% 2.1 mph NE3.4 kmh NE 5.0 mph8.0 kmh 30.10 in1019.3 mb 0.00 in0.0 mm 0.00 in0.0 mm 0.00 in0.0 mm
06:10 PM 14.1°F-9.9°C 11.0°F-11.7°C 87% 2.0 mph NE3.2 kmh NE 4.0 mph6.4 kmh 30.11 in1019.6 mb 0.00 in0.0 mm 0.00 in0.0 mm 0.00 in0.0 mm
06:15 PM 14.1°F-9.9°C 10.7°F-11.8°C 86% 2.8 mph NE4.5 kmh NE 7.0 mph11.3 kmh 30.11 in1019.6 mb 0.00 in0.0 mm 0.00 in0.0 mm 0.00 in0.0 mm
06:20 PM 13.9°F-10.1°C 10.5°F-11.9°C 86% 3.2 mph NE5.1 kmh NE 8.0 mph12.9 kmh 30.11 in1019.6 mb 0.00 in0.0 mm 0.00 in0.0 mm 0.00 in0.0 mm
06:25 PM 13.7°F-10.2°C 10.3°F-12.1°C 86% 2.2 mph NE3.5 kmh NE 8.0 mph12.9 kmh 30.11 in1019.6 mb 0.00 in0.0 mm 0.00 in0.0 mm 0.00 in0.0 mm
06:30 PM 13.6°F-10.2°C 10.2°F-12.1°C 86% 0.7 mph NE1.1 kmh NE 4.0 mph6.4 kmh 30.12 in1020.0 mb 0.00 in0.0 mm 0.00 in0.0 mm 0.00 in0.0 mm
06:35 PM 13.5°F-10.3°C 10.1°F-12.2°C 86% 1.4 mph NE2.3 kmh NE 4.0 mph6.4 kmh 30.12 in1020.0 mb 0.00 in0.0 mm 0.00 in0.0 mm 0.00 in0.0 mm
06:40 PM 13.4°F-10.3°C 10.0°F-12.2°C 86% 0.8 mph NE1.3 kmh NE 4.0 mph6.4 kmh 30.12 in1020.0 mb 0.00 in0.0 mm 0.00 in0.0 mm 0.00 in0.0 mm
06:45 PM 13.3°F-10.4°C 9.9°F-12.3°C 86% 1.7 mph NE2.7 kmh NE 3.0 mph4.8 kmh 30.12 in1020.0 mb 0.00 in0.0 mm 0.00 in0.0 mm 0.00 in0.0 mm
06:50 PM 13.2°F-10.4°C 9.8°F-12.3°C 86% 1.4 mph NE2.3 kmh NE 3.0 mph4.8 kmh 30.12 in1020.0 mb 0.00 in0.0 mm 0.00 in0.0 mm 0.00 in0.0 mm
06:55 PM 13.1°F-10.5°C 9.7°F-12.4°C 86% 1.5 mph NE2.4 kmh NE 3.0 mph4.8 kmh 30.13 in1020.3 mb 0.00 in0.0 mm 0.00 in0.0 mm 0.00 in0.0 mm
07:00 PM 12.9°F-10.6°C 9.5°F-12.5°C 86% 1.7 mph NE2.7 kmh NE 3.0 mph4.8 kmh 30.13 in1020.3 mb 0.00 in0.0 mm 0.00 in0.0 mm 0.00 in0.0 mm
07:05 PM 12.7°F-10.7°C 9.3°F-12.6°C 86% 2.0 mph NE3.2 kmh NE 4.0 mph6.4 kmh 30.13 in1020.3 mb 0.00 in0.0 mm 0.00 in0.0 mm 0.00 in0.0 mm
07:10 PM 12.6°F-10.8°C 9.2°F-12.7°C 86% 0.8 mph NE1.3 kmh NE 4.0 mph6.4 kmh 30.13 in1020.3 mb 0.00 in0.0 mm 0.00 in0.0 mm 0.00 in0.0 mm
07:15 PM 12.4°F-10.9°C 9.0°F-12.8°C 86% 1.6 mph NE2.6 kmh NE 3.0 mph4.8 kmh 30.13 in1020.3 mb 0.00 in0.0 mm 0.00 in0.0 mm 0.00 in0.0 mm
07:20 PM 12.3°F-10.9°C 8.9°F-12.8°C 86% 1.8 mph NE2.9 kmh NE 3.0 mph4.8 kmh 30.13 in1020.3 mb 0.00 in0.0 mm 0.00 in0.0 mm 0.00 in0.0 mm
07:25 PM 12.3°F-10.9°C 9.2°F-12.7°C 87% 2.0 mph ENE3.2 kmh ENE 5.0 mph8.0 kmh 30.14 in1020.7 mb 0.00 in0.0 mm 0.00 in0.0 mm 0.00 in0.0 mm
07:30 PM 12.3°F-10.9°C 9.2°F-12.7°C 87% 1.9 mph NE3.1 kmh NE 5.0 mph8.0 kmh 30.13 in1020.3 mb 0.00 in0.0 mm 0.00 in0.0 mm 0.00 in0.0 mm
07:35 PM 12.2°F-11.0°C 9.1°F-12.7°C 87% 2.7 mph NE4.3 kmh NE 5.0 mph8.0 kmh 30.13 in1020.3 mb 0.00 in0.0 mm 0.00 in0.0 mm 0.00 in0.0 mm
07:40 PM 12.1°F-11.1°C 9.0°F-12.8°C 87% 0.9 mph ENE1.4 kmh ENE 5.0 mph8.0 kmh 30.14 in1020.7 mb 0.00 in0.0 mm 0.00 in0.0 mm 0.00 in0.0 mm
07:45 PM 12.0°F-11.1°C 8.9°F-12.8°C 87% 0.8 mph ENE1.3 kmh ENE 4.0 mph6.4 kmh 30.14 in1020.7 mb 0.00 in0.0 mm 0.00 in0.0 mm 0.00 in0.0 mm
07:50 PM 12.0°F-11.1°C 8.9°F-12.8°C 87% 0.9 mph E1.4 kmh E 4.0 mph6.4 kmh 30.14 in1020.7 mb 0.00 in0.0 mm 0.00 in0.0 mm 0.00 in0.0 mm
07:55 PM 12.1°F-11.1°C 9.0°F-12.8°C 87% 0.3 mph E0.5 kmh E 3.0 mph4.8 kmh 30.14 in1020.7 mb 0.00 in0.0 mm 0.00 in0.0 mm 0.00 in0.0 mm
08:00 PM 12.2°F-11.0°C 9.3°F-12.6°C 88% 1.2 mph E1.9 kmh E 3.0 mph4.8 kmh 30.14 in1020.7 mb 0.00 in0.0 mm 0.00 in0.0 mm 0.00 in0.0 mm
08:05 PM 12.1°F-11.1°C 9.2°F-12.7°C 88% 0.8 mph E1.3 kmh E 3.0 mph4.8 kmh 30.14 in1020.7 mb 0.00 in0.0 mm 0.00 in0.0 mm 0.00 in0.0 mm
08:10 PM 12.2°F-11.0°C 9.6°F-12.4°C 89% 0.7 mph ESE1.1 kmh ESE 3.0 mph4.8 kmh 30.14 in1020.7 mb 0.00 in0.0 mm 0.00 in0.0 mm 0.00 in0.0 mm
08:15 PM 12.3°F-10.9°C 9.7°F-12.4°C 89% 0.5 mph ESE0.8 kmh ESE 3.0 mph4.8 kmh 30.14 in1020.7 mb 0.00 in0.0 mm 0.00 in0.0 mm 0.00 in0.0 mm
08:20 PM 12.3°F-10.9°C 9.7°F-12.4°C 89% Calm Calm 2.0 mph3.2 kmh 30.14 in1020.7 mb 0.00 in0.0 mm 0.00 in0.0 mm 0.00 in0.0 mm
08:25 PM 12.3°F-10.9°C 9.7°F-12.4°C 89% Calm Calm -- 30.14 in1020.7 mb 0.00 in0.0 mm 0.00 in0.0 mm 0.00 in0.0 mm
08:30 PM 12.3°F-10.9°C 9.7°F-12.4°C 89% Calm Calm -- 30.14 in1020.7 mb 0.00 in0.0 mm 0.00 in0.0 mm 0.00 in0.0 mm
08:35 PM 12.2°F-11.0°C 9.6°F-12.4°C 89% Calm Calm -- 30.14 in1020.7 mb 0.00 in0.0 mm 0.00 in0.0 mm 0.00 in0.0 mm
08:40 PM 12.1°F-11.1°C 9.5°F-12.5°C 89% 0.9 mph SE1.4 kmh SE 2.0 mph3.2 kmh 30.14 in1020.7 mb 0.00 in0.0 mm 0.00 in0.0 mm 0.00 in0.0 mm
08:45 PM 12.0°F-11.1°C 9.4°F-12.6°C 89% 0.9 mph SE1.4 kmh SE 2.0 mph3.2 kmh 30.14 in1020.7 mb 0.00 in0.0 mm 0.00 in0.0 mm 0.00 in0.0 mm
08:50 PM 11.9°F-11.2°C 9.3°F-12.6°C 89% 0.9 mph SSE1.4 kmh SSE 2.0 mph3.2 kmh 30.15 in1021.0 mb 0.00 in0.0 mm 0.00 in0.0 mm 0.00 in0.0 mm
08:55 PM 11.8°F-11.2°C 9.2°F-12.7°C 89% 0.8 mph S1.3 kmh S 2.0 mph3.2 kmh 30.15 in1021.0 mb 0.00 in0.0 mm 0.00 in0.0 mm 0.00 in0.0 mm
09:00 PM 11.4°F-11.4°C 8.6°F-13.0°C 88% 1.4 mph SSW2.3 kmh SSW 4.0 mph6.4 kmh 30.15 in1021.0 mb 0.00 in0.0 mm 0.00 in0.0 mm 0.00 in0.0 mm
09:05 PM 11.2°F-11.6°C 8.6°F-13.0°C 89% 2.6 mph S4.2 kmh S 4.0 mph6.4 kmh 30.16 in1021.3 mb 0.00 in0.0 mm 0.00 in0.0 mm 0.00 in0.0 mm
09:10 PM 11.3°F-11.5°C 8.9°F-12.8°C 90% 1.1 mph S1.8 kmh S 4.0 mph6.4 kmh 30.15 in1021.0 mb 0.00 in0.0 mm 0.00 in0.0 mm 0.00 in0.0 mm
09:15 PM 11.1°F-11.6°C 8.8°F-12.9°C 90% 1.4 mph SSW2.3 kmh SSW 3.0 mph4.8 kmh 30.15 in1021.0 mb 0.00 in0.0 mm 0.00 in0.0 mm 0.00 in0.0 mm
09:20 PM 11.1°F-11.6°C 8.8°F-12.9°C 90% 0.3 mph SSW0.5 kmh SSW 3.0 mph4.8 kmh 30.15 in1021.0 mb 0.00 in0.0 mm 0.00 in0.0 mm 0.00 in0.0 mm
09:25 PM 11.1°F-11.6°C 8.8°F-12.9°C 90% 0.7 mph SSW1.1 kmh SSW 2.0 mph3.2 kmh 30.15 in1021.0 mb 0.00 in0.0 mm 0.00 in0.0 mm 0.00 in0.0 mm
09:30 PM 11.2°F-11.6°C 8.9°F-12.8°C 90% 1.1 mph SSW1.8 kmh SSW 2.0 mph3.2 kmh 30.16 in1021.3 mb 0.00 in0.0 mm 0.00 in0.0 mm 0.00 in0.0 mm
09:35 PM 11.2°F-11.6°C 8.9°F-12.8°C 90% 1.5 mph S2.4 kmh S 2.0 mph3.2 kmh 30.16 in1021.3 mb 0.00 in0.0 mm 0.00 in0.0 mm 0.00 in0.0 mm
09:40 PM 11.2°F-11.6°C 8.9°F-12.8°C 90% 1.5 mph S2.4 kmh S 2.0 mph3.2 kmh 30.16 in1021.3 mb 0.00 in0.0 mm 0.00 in0.0 mm 0.00 in0.0 mm
09:45 PM 11.2°F-11.6°C 8.9°F-12.8°C 90% 1.3 mph S2.1 kmh S 2.0 mph3.2 kmh 30.17 in1021.7 mb 0.00 in0.0 mm 0.00 in0.0 mm 0.00 in0.0 mm
09:50 PM 11.1°F-11.6°C 8.8°F-12.9°C 90% 0.1 mph S0.2 kmh S 2.0 mph3.2 kmh 30.17 in1021.7 mb 0.00 in0.0 mm 0.00 in0.0 mm 0.00 in0.0 mm
09:55 PM 11.0°F-11.7°C 8.7°F-12.9°C 90% 1.3 mph S2.1 kmh S 2.0 mph3.2 kmh 30.17 in1021.7 mb 0.00 in0.0 mm 0.00 in0.0 mm 0.00 in0.0 mm
10:00 PM 11.0°F-11.7°C 8.7°F-12.9°C 90% 0.9 mph S1.4 kmh S 2.0 mph3.2 kmh 30.17 in1021.7 mb 0.00 in0.0 mm 0.00 in0.0 mm 0.00 in0.0 mm
10:05 PM 11.0°F-11.7°C 8.7°F-12.9°C 90% 2.0 mph SSE3.2 kmh SSE 3.0 mph4.8 kmh 30.17 in1021.7 mb 0.00 in0.0 mm 0.00 in0.0 mm 0.00 in0.0 mm
10:10 PM 11.0°F-11.7°C 8.7°F-12.9°C 90% 1.8 mph SE2.9 kmh SE 4.0 mph6.4 kmh 30.17 in1021.7 mb 0.00 in0.0 mm 0.00 in0.0 mm 0.00 in0.0 mm
10:15 PM 10.9°F-11.7°C 8.6°F-13.0°C 90% 2.2 mph SE3.5 kmh SE 6.0 mph9.7 kmh 30.16 in1021.3 mb 0.00 in0.0 mm 0.00 in0.0 mm 0.00 in0.0 mm
10:20 PM 11.0°F-11.7°C 8.7°F-12.9°C 90% 2.9 mph SSE4.7 kmh SSE 7.0 mph11.3 kmh 30.16 in1021.3 mb 0.00 in0.0 mm 0.00 in0.0 mm 0.00 in0.0 mm
10:25 PM 11.1°F-11.6°C 8.8°F-12.9°C 90% 0.6 mph SSE1.0 kmh SSE 7.0 mph11.3 kmh 30.16 in1021.3 mb 0.00 in0.0 mm 0.00 in0.0 mm 0.00 in0.0 mm
10:30 PM 10.9°F-11.7°C 8.6°F-13.0°C 90% 0.3 mph S0.5 kmh S 3.0 mph4.8 kmh 30.16 in1021.3 mb 0.00 in0.0 mm 0.00 in0.0 mm 0.00 in0.0 mm
10:35 PM 10.8°F-11.8°C 8.5°F-13.1°C 90% Calm Calm 2.0 mph3.2 kmh 30.16 in1021.3 mb 0.00 in0.0 mm 0.00 in0.0 mm 0.00 in0.0 mm
10:40 PM 10.7°F-11.8°C 8.4°F-13.1°C 90% Calm Calm -- 30.16 in1021.3 mb 0.00 in0.0 mm 0.00 in0.0 mm 0.00 in0.0 mm
10:45 PM 10.6°F-11.9°C 8.3°F-13.2°C 90% Calm Calm -- 30.16 in1021.3 mb 0.00 in0.0 mm 0.00 in0.0 mm 0.00 in0.0 mm
10:50 PM 10.6°F-11.9°C 8.3°F-13.2°C 90% Calm Calm 1.0 mph1.6 kmh 30.16 in1021.3 mb 0.00 in0.0 mm 0.00 in0.0 mm 0.00 in0.0 mm
10:55 PM 10.6°F-11.9°C 8.3°F-13.2°C 90% 0.2 mph S0.3 kmh S 2.0 mph3.2 kmh 30.16 in1021.3 mb 0.00 in0.0 mm 0.00 in0.0 mm 0.00 in0.0 mm
11:00 PM 10.6°F-11.9°C 8.3°F-13.2°C 90% Calm Calm 2.0 mph3.2 kmh 30.16 in1021.3 mb 0.00 in0.0 mm 0.00 in0.0 mm 0.00 in0.0 mm
11:05 PM 10.6°F-11.9°C 8.3°F-13.2°C 90% 0.2 mph S0.3 kmh S 1.0 mph1.6 kmh 30.16 in1021.3 mb 0.00 in0.0 mm 0.00 in0.0 mm 0.00 in0.0 mm
11:10 PM 10.6°F-11.9°C 8.3°F-13.2°C 90% 0.2 mph S0.3 kmh S 1.0 mph1.6 kmh 30.16 in1021.3 mb 0.00 in0.0 mm 0.00 in0.0 mm 0.00 in0.0 mm
11:15 PM 10.6°F-11.9°C 8.3°F-13.2°C 90% 1.3 mph S2.1 kmh S 3.0 mph4.8 kmh 30.16 in1021.3 mb 0.00 in0.0 mm 0.00 in0.0 mm 0.00 in0.0 mm
11:20 PM 10.6°F-11.9°C 8.3°F-13.2°C 90% 1.2 mph S1.9 kmh S 3.0 mph4.8 kmh 30.16 in1021.3 mb 0.00 in0.0 mm 0.00 in0.0 mm 0.00 in0.0 mm
11:25 PM 10.5°F-11.9°C 8.2°F-13.2°C 90% 1.2 mph SSW1.9 kmh SSW 3.0 mph4.8 kmh 30.16 in1021.3 mb 0.00 in0.0 mm 0.00 in0.0 mm 0.00 in0.0 mm
11:30 PM 10.4°F-12.0°C 8.1°F-13.3°C 90% 1.1 mph SW1.8 kmh SW 2.0 mph3.2 kmh 30.16 in1021.3 mb 0.00 in0.0 mm 0.00 in0.0 mm 0.00 in0.0 mm
11:35 PM 10.3°F-12.1°C 8.0°F-13.3°C 90% 0.3 mph SW0.5 kmh SW 2.0 mph3.2 kmh 30.16 in1021.3 mb 0.00 in0.0 mm 0.00 in0.0 mm 0.00 in0.0 mm
11:40 PM 10.1°F-12.2°C 7.8°F-13.4°C 90% 1.2 mph S1.9 kmh S 3.0 mph4.8 kmh 30.16 in1021.3 mb 0.00 in0.0 mm 0.00 in0.0 mm 0.00 in0.0 mm
11:45 PM 10.0°F-12.2°C 7.7°F-13.5°C 90% 1.0 mph SSW1.6 kmh SSW 3.0 mph4.8 kmh 30.16 in1021.3 mb 0.00 in0.0 mm 0.00 in0.0 mm 0.00 in0.0 mm
11:50 PM 9.9°F-12.3°C 7.6°F-13.6°C 90% 0.7 mph SW1.1 kmh SW 2.0 mph3.2 kmh 30.16 in1021.3 mb 0.00 in0.0 mm 0.00 in0.0 mm 0.00 in0.0 mm
11:55 PM 9.8°F-12.3°C 7.5°F-13.6°C 90% Calm Calm 2.0 mph3.2 kmh 30.16 in1021.3 mb 0.00 in0.0 mm 0.00 in0.0 mm 0.00 in0.0 mm